Terminal Aerodrome Forecast
Issued by NWS

Home | Current Version | Previous Version | Text Only | Print | Product List | Glossary On
Versions: 1 2 3 4 5 6 7 8 9 10 11 12 13 14 15
000
FTUS46 KPDT 282320
TAFBDN
TAF
KBDN 282320Z 2900/2924 32008KT P6SM BKN120
     FM290400 VRB04KT P6SM OVC120
     FM291000 20025G35KT P6SM VCSH BKN060 OVC080
     FM291500 24025G35KT P6SM BKN080
     FM291900 28020G30KT P6SM SCT080=

USA.gov is the U.S. government's official web portal to all federal, state and local government web resources and services.